24 de septiembre de 2022

Hora Código Tiempo Temp. Visibilidad Cielo nuboso Viento METAR/SPECI
23:25
V
10 °C 10 km+ - 320° 320° 4 kt METAR EHAM 242125Z 32004KT CAVOK 10/08 Q1016 NOSIG
22:55
V
10 °C 10 km+ - 340° 340° 4 kt METAR EHAM 242055Z 34004KT CAVOK 10/08 Q1016 NOSIG
22:25
V
11 °C 10 km+ - 350° 350° 4 kt METAR EHAM 242025Z 35004KT CAVOK 11/09 Q1016 NOSIG
21:55
V
12 °C 10 km+ - 360° 360° 5 kt METAR EHAM 241955Z 36005KT CAVOK 12/09 Q1016 NOSIG
21:25
V
12 °C 10 km+ - 360° 360° 6 kt METAR EHAM 241925Z 36006KT 320V030 CAVOK 12/09 Q1015 NOSIG
20:55
V
13 °C 10 km+ - 010° 010° 6 kt METAR EHAM 241855Z 01006KT 330V030 9999 FEW020 13/09 Q1015 NOSIG
20:25
V
14 °C 10 km+ - 010° 010° 7 kt METAR EHAM 241825Z 01007KT 300V050 9999 FEW022 14/09 Q1015 NOSIG
19:55
V
14 °C 10 km+ - 010° 010° 7 kt METAR EHAM 241755Z 01007KT 320V040 9999 FEW025 14/09 Q1015 NOSIG
19:25
V
15 °C 10 km+ - 010° 010° 9 kt METAR EHAM 241725Z 01009KT 340V060 9999 FEW028 15/09 Q1015 NOSIG
18:55
V
15 °C 10 km+ - 020° 020° 12 kt METAR EHAM 241655Z 02012KT 330V050 9999 FEW028 15/09 Q1014 NOSIG
18:25
V
16 °C 10 km+ - 020° 020° 11 kt METAR EHAM 241625Z 02011KT 330V060 9999 FEW028 16/09 Q1014 NOSIG
17:55
V
16 °C 10 km+ - 030° 030° 11 kt METAR EHAM 241555Z 03011KT 350V070 9999 FEW030 16/09 Q1014 NOSIG
17:25
V
16 °C 10 km+ - 020° 020° 13 kt METAR EHAM 241525Z 02013KT 340V050 9999 FEW030 16/09 Q1014 NOSIG
16:55
V
16 °C 10 km+ - 020° 020° 10 kt METAR EHAM 241455Z 02010KT 340V070 9999 FEW030 16/09 Q1014 NOSIG
16:25
V
16 °C 10 km+ - 020° 020° 10 kt METAR EHAM 241425Z 02010KT 340V050 9999 FEW032 16/09 Q1014 NOSIG
15:55
V
16 °C 10 km+ - 020° 020° 10 kt METAR EHAM 241355Z 02010KT 330V060 9999 FEW030 16/09 Q1013 NOSIG
15:25
V
16 °C 10 km+ - 030° 030° 12 kt METAR EHAM 241325Z 03012KT 340V060 9999 FEW028 16/09 Q1013 NOSIG
14:55
V
16 °C 10 km+ - 020° 020° 11 kt METAR EHAM 241255Z 02011KT 340V050 9999 FEW028 SCT049 16/10 Q1013 NOSIG
14:25
V
16 °C 10 km+ 4.800 ft 020° 020° 12 kt METAR EHAM 241225Z 02012KT 330V060 9999 FEW025 BKN048 16/11 Q1013 NOSIG
13:55
V
15 °C 10 km+ 4.200 ft 020° 020° 10 kt METAR EHAM 241155Z 02010KT 350V050 9999 FEW021 BKN042 15/11 Q1013 NOSIG
13:25
V
15 °C 10 km+ 3.800 ft 040° 040° 11 kt METAR EHAM 241125Z 04011KT 010V070 9999 FEW021 BKN038 15/11 Q1013 NOSIG
12:55
V
15 °C 10 km+ 3.500 ft 030° 030° 10 kt METAR EHAM 241055Z 03010KT 360V060 9999 FEW020 BKN035 15/11 Q1013 NOSIG
12:25
V
15 °C 10 km+ 3.600 ft 020° 020° 11 kt METAR EHAM 241025Z 02011KT 350V050 9999 FEW020 BKN036 15/11 Q1013 NOSIG
11:55
V
15 °C 10 km+ 3.600 ft 030° 030° 11 kt METAR EHAM 240955Z 03011KT 9999 FEW020 BKN036 15/11 Q1013 NOSIG
11:25
V
15 °C 10 km+ 3.400 ft 030° 030° 9 kt METAR EHAM 240925Z 03009KT 350V070 9999 FEW022 BKN034 15/11 Q1013 NOSIG
10:55
V
15 °C 10 km+ 3.400 ft 020° 020° 11 kt METAR EHAM 240855Z 02011KT 360V060 9999 -DZRA FEW022 BKN034 15/12 Q1012 NOSIG
10:25
V
14 °C 10 km+ - 020° 020° 11 kt METAR EHAM 240825Z 02011KT 330V050 9999 -DZRA FEW022 SCT030 14/12 Q1012 NOSIG
09:55
V
14 °C 10 km+ - 020° 020° 11 kt METAR EHAM 240755Z 02011KT 340V050 9999 FEW010 14/12 Q1012 NOSIG
09:25
V
14 °C 10 km+ - 020° 020° 11 kt METAR EHAM 240725Z 02011KT 340V050 9999 FEW010 14/12 Q1012 NOSIG
08:55
V
14 °C 9 km 4.800 ft 020° 020° 11 kt METAR EHAM 240655Z 02011KT 350V050 9000 -DZRA FEW010 BKN048 14/12 Q1011 NOSIG
08:25
V
14 °C 10 km+ 4.800 ft 030° 030° 13 kt METAR EHAM 240625Z 03013KT 350V070 9999 -RADZ FEW009 SCT014 BKN048 14/13 Q1011 NOSIG
07:55
V
14 °C 8 km - 020° 020° 10 kt METAR EHAM 240555Z 02010KT 330V070 8000 -RADZ FEW010 SCT014 14/13 Q1011 NOSIG
07:25
V
14 °C 8 km 3.300 ft 030° 030° 11 kt METAR EHAM 240525Z 03011KT 350V060 8000 -RADZ FEW010 SCT014 BKN033 14/13 Q1011 NOSIG
06:55
V
14 °C 10 km+ - 020° 020° 14 kt METAR EHAM 240455Z 02014KT 330V050 9999 FEW010 SCT014 14/12 Q1010 NOSIG
06:25
I
14 °C 5 km 600 ft 290° 290° 3 kt METAR EHAM 240425Z 29003KT 230V360 5000 BR FEW004 BKN006 14/13 Q1010 BECMG 02012KT 9000 NSW SCT012
05:55
I
14 °C 4,6 km 800 ft Var Var 2 kt METAR EHAM 240355Z VRB02KT 4600 -DZ BR FEW004 SCT005 BKN008 14/13 Q1011 BECMG 02012KT 7000
05:25
I
14 °C 5 km 600 ft 210° 210° 4 kt METAR EHAM 240325Z 21004KT 5000 -RADZ BR SCT004 BKN006 14/13 Q1011 BECMG 36012KT TEMPO SCT003 BKN004
04:55
I
14 °C 5 km 600 ft 200° 200° 5 kt METAR EHAM 240255Z 20005KT 5000 -RADZ BR FEW003 BKN006 14/13 Q1011 NOSIG
04:25
I
14 °C 5 km 600 ft 200° 200° 4 kt METAR EHAM 240225Z 20004KT 180V260 5000 -RADZ BR FEW003 BKN006 14/13 Q1011 NOSIG
03:55
I
14 °C 5 km 600 ft 190° 190° 5 kt METAR EHAM 240155Z 19005KT 160V220 5000 -RADZ BR FEW004 BKN006 14/13 Q1011 NOSIG
03:25
I
14 °C 5 km 600 ft 200° 200° 6 kt METAR EHAM 240125Z 20006KT 5000 -RADZ FEW004 BKN006 14/13 Q1011 NOSIG
02:55
I
14 °C 5 km 700 ft 200° 200° 8 kt METAR EHAM 240055Z 20008KT 5000 -DZ FEW004 BKN007 BKN029 14/13 Q1011 TEMPO SCT007 BKN029
02:25
I
14 °C 4,5 km 700 ft 200° 200° 8 kt METAR EHAM 240025Z 20008KT 4500 -RADZ FEW005 BKN007 14/14 Q1012 RERADZ TEMPO SCT007 BKN025
01:55
I
14 °C 2,8 km 700 ft 210° 210° 8 kt METAR EHAM 232355Z 21008KT 2800 RADZ FEW005 SCT006 BKN007 14/14 Q1012 BECMG 4500
01:25
I
14 °C 5 km 700 ft 190° 190° 6 kt METAR EHAM 232325Z 19006KT 160V220 5000 RADZ FEW005 SCT006 OVC007 14/14 Q1012 NOSIG
00:55
I
14 °C 6 km 700 ft 180° 180° 6 kt METAR EHAM 232255Z 18006KT 140V210 6000 -RA FEW005 SCT006 BKN007 14/13 Q1012 TEMPO 4500 BR
00:25
M
14 °C 7 km 1.600 ft 180° 180° 6 kt METAR EHAM 232225Z 18006KT 7000 -RA SCT007 BKN016 BKN029 14/13 Q1012 TEMPO 4500 BR BKN007

23 de septiembre de 2022

Hora Código Tiempo Temp. Visibilidad Cielo nuboso Viento METAR/SPECI
23:55
M
14 °C 9 km 2.900 ft 180° 180° 7 kt METAR EHAM 232155Z 18007KT 9000 SCT007 SCT022 BKN029 14/13 Q1012 RERADZ TEMPO 5000 -RA BR BKN007
23:25
M
14 °C 5 km 3.400 ft 220° 220° 10 kt METAR EHAM 232125Z 22010KT 5000 RADZ FEW007 SCT021 BKN034 14/13 Q1012 NOSIG
22:55
V
14 °C 9 km 3.400 ft 200° 200° 7 kt METAR EHAM 232055Z 20007KT 9000 -RA FEW012 SCT024 BKN034 14/13 Q1013 NOSIG
22:25
M
14 °C 7 km 4.400 ft 220° 220° 8 kt METAR EHAM 232025Z 22008KT 7000 -RA FEW008 SCT024 BKN044 14/13 Q1013 RERA BECMG 9999
21:55
I
15 °C 4,8 km 4.000 ft 210° 210° 15 kt METAR EHAM 231955Z 21015KT 4800 SHRA FEW005 SCT007 FEW025CB BKN040 15/14 Q1013 RERA BECMG 9999 NSW BKN040
21:25
M
15 °C 7 km 2.400 ft 230° 230° 3 kt METAR EHAM 231925Z 23003KT 180V250 7000 -RADZ FEW006 SCT016 BKN024 15/14 Q1013 TEMPO 4500 RA SHRA BKN015 SCT025CB
20:55
V
15 °C 10 km+ 4.200 ft 180° 180° 5 kt METAR EHAM 231855Z 18005KT 9999 -RA FEW012 SCT016 BKN042 15/14 Q1013 TEMPO 5000 RA SHRA SCT025CB
20:25
V
14 °C 10 km+ - 190° 190° 5 kt METAR EHAM 231825Z 19005KT 9999 -RA FEW020 SCT040 14/13 Q1013 NOSIG
19:55
V
15 °C 10 km+ - 210° 210° 5 kt METAR EHAM 231755Z 21005KT 9999 -RA FEW030 15/13 Q1013 NOSIG
19:25
V
15 °C 10 km+ 4.800 ft 210° 210° 8 kt METAR EHAM 231725Z 21008KT 9999 -RA FEW010 BKN048 15/13 Q1013 NOSIG
18:55
V
16 °C 8 km 4.500 ft 210° 210° 12 kt METAR EHAM 231655Z 21012KT 180V240 8000 -RADZ FEW009 SCT018 BKN045 16/14 Q1013 TEMPO 6000
18:25
V
16 °C 10 km+ - 210° 210° 8 kt METAR EHAM 231625Z 21008KT 9999 -RA FEW016 SCT025 16/14 Q1013 TEMPO 5000 RA
17:55
V
16 °C 10 km+ - 200° 200° 5 kt METAR EHAM 231555Z 20005KT 9999 FEW018 16/14 Q1013 TEMPO 7000 RA
17:25
V
17 °C 10 km+ - 210° 210° 7 kt METAR EHAM 231525Z 21007KT 9999 FEW020 SCT032 17/14 Q1013 NOSIG
16:55
V
17 °C 10 km+ 4.200 ft 220° 220° 9 kt METAR EHAM 231455Z 22009KT 9999 -RA FEW017 SCT024 BKN042 17/14 Q1013 TEMPO 7000
16:25
V
18 °C 10 km+ 3.600 ft 200° 200° 11 kt METAR EHAM 231425Z 20011KT 9999 -RA FEW025 BKN036 18/13 Q1014 TEMPO 7000
15:55
V
18 °C 10 km+ - 190° 190° 7 kt METAR EHAM 231355Z 19007KT 9999 FEW025 SCT042 18/13 Q1014 TEMPO 7000
15:25
V
18 °C 10 km+ - 190° 190° 8 kt METAR EHAM 231325Z 19008KT 160V220 9999 FEW042 18/12 Q1014 NOSIG
14:55
V
17 °C 10 km+ - 190° 190° 7 kt METAR EHAM 231255Z 19007KT 160V220 9999 FEW040 17/12 Q1014 NOSIG
14:25
V
17 °C 10 km+ - 180° 180° 8 kt METAR EHAM 231225Z 18008KT 9999 FEW045 17/12 Q1014 NOSIG
13:55
V
17 °C 10 km+ - 180° 180° 7 kt METAR EHAM 231155Z 18007KT 9999 SCT045 17/12 Q1015 NOSIG
13:25
V
17 °C 10 km+ 4.500 ft 190° 190° 7 kt METAR EHAM 231125Z 19007KT 150V210 9999 OVC045 17/11 Q1015 NOSIG
12:55
V
16 °C 10 km+ 4.500 ft 180° 180° 6 kt METAR EHAM 231055Z 18006KT 9999 OVC045 16/11 Q1015 NOSIG
12:25
V
16 °C 10 km+ 4.500 ft 180° 180° 5 kt METAR EHAM 231025Z 18005KT 9999 OVC045 16/11 Q1015 NOSIG
11:55
V
16 °C 10 km+ 4.500 ft 190° 190° 7 kt METAR EHAM 230955Z 19007KT 9999 BKN045 16/11 Q1015 NOSIG
11:25
V
15 °C 10 km+ 4.500 ft 190° 190° 7 kt METAR EHAM 230925Z 19007KT 9999 FEW035 BKN045 15/11 Q1015 NOSIG
10:55
V
15 °C 10 km+ 4.600 ft 160° 160° 6 kt METAR EHAM 230855Z 16006KT 9999 BKN046 15/10 Q1015 NOSIG
10:25
V
14 °C 10 km+ 4.400 ft 170° 170° 5 kt METAR EHAM 230825Z 17005KT 9999 FEW033 BKN044 14/10 Q1015 NOSIG
09:55
V
14 °C 10 km+ - 160° 160° 4 kt METAR EHAM 230755Z 16004KT 9999 FEW046 14/09 Q1015 NOSIG
09:25
V
13 °C 10 km+ - 150° 150° 3 kt METAR EHAM 230725Z 15003KT 120V190 9999 FEW035 13/09 Q1015 NOSIG
08:55
V
12 °C 10 km+ 3.800 ft 170° 170° 4 kt METAR EHAM 230655Z 17004KT 130V200 9999 -RADZ FEW031 BKN038 12/09 Q1015 NOSIG
08:25
V
11 °C 10 km+ 4.000 ft 160° 160° 5 kt METAR EHAM 230625Z 16005KT 9999 -RADZ BKN040 11/09 Q1015 NOSIG
07:55
V
11 °C 10 km+ - 160° 160° 5 kt METAR EHAM 230555Z 16005KT 9999 SCT040 11/08 Q1015 NOSIG
07:25
V
11 °C 10 km+ - 150° 150° 5 kt METAR EHAM 230525Z 15005KT 9999 FEW047 11/08 Q1015 NOSIG
06:55
V
10 °C 10 km+ - 160° 160° 4 kt METAR EHAM 230455Z 16004KT CAVOK 10/08 Q1015 NOSIG
06:25
V
10 °C 10 km+ - 160° 160° 6 kt METAR EHAM 230425Z 16006KT CAVOK 10/08 Q1015 NOSIG
05:55
V
10 °C 10 km+ - 170° 170° 5 kt METAR EHAM 230355Z 17005KT CAVOK 10/07 Q1016 NOSIG
05:25
V
10 °C 10 km+ - 150° 150° 5 kt METAR EHAM 230325Z 15005KT CAVOK 10/07 Q1016 NOSIG
04:55
V
10 °C 10 km+ - 160° 160° 5 kt METAR EHAM 230255Z 16005KT CAVOK 10/07 Q1016 NOSIG
04:25
V
10 °C 10 km+ - 160° 160° 5 kt METAR EHAM 230225Z 16005KT CAVOK 10/07 Q1016 NOSIG
03:55
V
11 °C 10 km+ - 160° 160° 3 kt METAR EHAM 230155Z 16003KT CAVOK 11/08 Q1016 NOSIG
03:25
V
10 °C 10 km+ - 160° 160° 3 kt METAR EHAM 230125Z 16003KT CAVOK 10/08 Q1017 NOSIG
02:55
V
11 °C 10 km+ - 160° 160° 3 kt METAR EHAM 230055Z 16003KT 140V200 CAVOK 11/08 Q1017 NOSIG
02:25
V
11 °C 10 km+ - 150° 150° 3 kt METAR EHAM 230025Z 15003KT CAVOK 11/08 Q1017 NOSIG
01:55
V
11 °C 10 km+ - 150° 150° 3 kt METAR EHAM 222355Z 15003KT CAVOK 11/08 Q1017 NOSIG
01:25
V
11 °C 10 km+ - 150° 150° 5 kt METAR EHAM 222325Z 15005KT CAVOK 11/08 Q1017 NOSIG
00:55
V
12 °C 10 km+ - 140° 140° 7 kt METAR EHAM 222255Z 14007KT CAVOK 12/08 Q1018 NOSIG
00:25
V
12 °C 10 km+ - 140° 140° 8 kt METAR EHAM 222225Z 14008KT CAVOK 12/08 Q1018 NOSIG

22 de septiembre de 2022

Hora Código Tiempo Temp. Visibilidad Cielo nuboso Viento METAR/SPECI
23:55
V
12 °C 10 km+ - 140° 140° 7 kt METAR EHAM 222155Z 14007KT CAVOK 12/08 Q1018 NOSIG
23:25
V
11 °C 10 km+ - 140° 140° 5 kt METAR EHAM 222125Z 14005KT CAVOK 11/08 Q1018 NOSIG
22:55
V
12 °C 10 km+ - 130° 130° 3 kt METAR EHAM 222055Z 13003KT 090V160 CAVOK 12/08 Q1019 NOSIG
22:25
V
11 °C 10 km+ - 110° 110° 2 kt METAR EHAM 222025Z 11002KT CAVOK 11/09 Q1019 NOSIG
21:55
V
12 °C 10 km+ - 140° 140° 3 kt METAR EHAM 221955Z 14003KT CAVOK 12/09 Q1019 NOSIG
21:25
V
13 °C 10 km+ - 130° 130° 2 kt METAR EHAM 221925Z 13002KT CAVOK 13/09 Q1019 NOSIG
20:55
V
14 °C 10 km+ - Var Var 2 kt METAR EHAM 221855Z VRB02KT CAVOK 14/08 Q1019 NOSIG
20:25
V
14 °C 10 km+ - 180° 180° 3 kt METAR EHAM 221825Z 18003KT CAVOK 14/08 Q1019 NOSIG
19:55
V
13 °C 10 km+ - 160° 160° 4 kt METAR EHAM 221755Z 16004KT CAVOK 13/08 Q1019 NOSIG
19:25
V
15 °C 10 km+ - 150° 150° 4 kt METAR EHAM 221725Z 15004KT 9999 FEW049 15/08 Q1019 NOSIG
18:55
V
15 °C 10 km+ - 170° 170° 5 kt METAR EHAM 221655Z 17005KT 9999 FEW049 15/08 Q1019 NOSIG
18:25
V
17 °C 10 km+ - 170° 170° 7 kt METAR EHAM 221625Z 17007KT 9999 FEW048 17/08 Q1019 NOSIG
17:55
V
18 °C 10 km+ - 180° 180° 8 kt METAR EHAM 221555Z 18008KT 9999 FEW048 18/08 Q1020 NOSIG
17:25
V
18 °C 10 km+ - 190° 190° 10 kt METAR EHAM 221525Z 19010KT CAVOK 18/07 Q1020 NOSIG
16:55
V
18 °C 10 km+ - 190° 190° 7 kt METAR EHAM 221455Z 19007KT 160V220 CAVOK 18/08 Q1020 NOSIG
Datos más antiguos

Nosotros y terceros seguimos tu comportamiento en Internet en nuestro sitio web con cookies. Si continúas, asumimos que estás de acuerdo con nuestra política de cookies. Más información